sensor_id;sensor_type;location;lat;lon;timestamp;P1;durP1;ratioP1;P2;durP2;ratioP2
75990;SDS011;64673;52.276;10.560;2023-06-14T00:01:34;2.78;;;1.63;;
75990;SDS011;64673;52.276;10.560;2023-06-14T00:04:00;3.13;;;1.77;;
75990;SDS011;64673;52.276;10.560;2023-06-14T00:06:26;2.50;;;1.80;;
75990;SDS011;64673;52.276;10.560;2023-06-14T00:08:53;2.08;;;1.70;;
75990;SDS011;64673;52.276;10.560;2023-06-14T00:11:19;3.42;;;1.70;;
75990;SDS011;64673;52.276;10.560;2023-06-14T00:13:44;2.95;;;1.90;;
75990;SDS011;64673;52.276;10.560;2023-06-14T00:16:10;3.35;;;1.70;;
75990;SDS011;64673;52.276;10.560;2023-06-14T00:18:36;2.70;;;1.80;;
75990;SDS011;64673;52.276;10.560;2023-06-14T00:21:01;3.55;;;1.70;;
75990;SDS011;64673;52.276;10.560;2023-06-14T00:23:27;2.78;;;1.80;;
75990;SDS011;64673;52.276;10.560;2023-06-14T00:25:52;3.33;;;1.73;;
75990;SDS011;64673;52.276;10.560;2023-06-14T00:28:17;4.55;;;1.63;;
75990;SDS011;64673;52.276;10.560;2023-06-14T00:30:43;2.70;;;1.60;;
75990;SDS011;64673;52.276;10.560;2023-06-14T00:33:11;2.85;;;1.80;;
75990;SDS011;64673;52.276;10.560;2023-06-14T00:35:36;2.63;;;1.67;;
75990;SDS011;64673;52.276;10.560;2023-06-14T00:38:02;2.70;;;1.75;;
75990;SDS011;64673;52.276;10.560;2023-06-14T00:40:27;2.40;;;1.70;;
75990;SDS011;64673;52.276;10.560;2023-06-14T00:42:52;3.15;;;1.55;;
75990;SDS011;64673;52.276;10.560;2023-06-14T00:45:18;2.15;;;1.55;;
75990;SDS011;64673;52.276;10.560;2023-06-14T00:47:43;3.55;;;1.67;;
75990;SDS011;64673;52.276;10.560;2023-06-14T00:50:11;3.10;;;1.88;;
75990;SDS011;64673;52.276;10.560;2023-06-14T00:52:37;6.13;;;2.10;;
75990;SDS011;64673;52.276;10.560;2023-06-14T00:55:02;4.93;;;1.88;;
75990;SDS011;64673;52.276;10.560;2023-06-14T00:57:28;5.47;;;2.17;;
75990;SDS011;64673;52.276;10.560;2023-06-14T00:59:54;2.78;;;1.83;;
75990;SDS011;64673;52.276;10.560;2023-06-14T01:02:20;2.97;;;1.80;;
75990;SDS011;64673;52.276;10.560;2023-06-14T01:04:47;2.80;;;1.80;;
75990;SDS011;64673;52.276;10.560;2023-06-14T01:07:25;2.58;;;1.63;;
75990;SDS011;64673;52.276;10.560;2023-06-14T01:17:45;3.30;;;1.50;;
75990;SDS011;64673;52.276;10.560;2023-06-14T01:20:16;5.22;;;1.50;;
75990;SDS011;64673;52.276;10.560;2023-06-14T01:22:51;3.58;;;1.60;;
75990;SDS011;64673;52.276;10.560;2023-06-14T01:25:18;2.38;;;1.75;;
75990;SDS011;64673;52.276;10.560;2023-06-14T01:27:52;5.28;;;1.73;;
75990;SDS011;64673;52.276;10.560;2023-06-14T01:30:20;2.80;;;1.88;;
75990;SDS011;64673;52.276;10.560;2023-06-14T01:35:15;4.30;;;2.10;;
75990;SDS011;64673;52.276;10.560;2023-06-14T01:37:40;3.40;;;1.48;;
75990;SDS011;64673;52.276;10.560;2023-06-14T01:40:07;2.70;;;1.42;;
75990;SDS011;64673;52.276;10.560;2023-06-14T01:42:36;5.00;;;1.73;;
75990;SDS011;64673;52.276;10.560;2023-06-14T01:45:03;3.40;;;1.50;;
75990;SDS011;64673;52.276;10.560;2023-06-14T01:47:31;3.92;;;1.70;;
75990;SDS011;64673;52.276;10.560;2023-06-14T01:49:57;4.53;;;1.60;;
75990;SDS011;64673;52.276;10.560;2023-06-14T01:52:22;2.53;;;1.35;;
75990;SDS011;64673;52.276;10.560;2023-06-14T01:54:49;4.78;;;1.48;;
75990;SDS011;64673;52.276;10.560;2023-06-14T01:57:17;7.13;;;1.83;;
75990;SDS011;64673;52.276;10.560;2023-06-14T01:59:42;2.92;;;1.90;;
75990;SDS011;64673;52.276;10.560;2023-06-14T02:02:13;5.63;;;1.63;;
75990;SDS011;64673;52.276;10.560;2023-06-14T02:04:38;3.05;;;1.70;;
75990;SDS011;64673;52.276;10.560;2023-06-14T02:07:04;2.60;;;1.70;;
75990;SDS011;64673;52.276;10.560;2023-06-14T02:09:29;4.10;;;1.88;;
75990;SDS011;64673;52.276;10.560;2023-06-14T02:11:54;3.47;;;1.70;;
75990;SDS011;64673;52.276;10.560;2023-06-14T02:14:20;4.55;;;1.77;;
75990;SDS011;64673;52.276;10.560;2023-06-14T02:16:45;3.67;;;1.50;;
75990;SDS011;64673;52.276;10.560;2023-06-14T02:19:17;4.93;;;1.70;;
75990;SDS011;64673;52.276;10.560;2023-06-14T02:21:43;5.03;;;1.85;;
75990;SDS011;64673;52.276;10.560;2023-06-14T02:24:08;3.60;;;1.90;;
75990;SDS011;64673;52.276;10.560;2023-06-14T02:26:34;3.30;;;1.88;;
75990;SDS011;64673;52.276;10.560;2023-06-14T02:29:00;2.40;;;1.83;;
75990;SDS011;64673;52.276;10.560;2023-06-14T02:31:25;3.10;;;1.92;;
75990;SDS011;64673;52.276;10.560;2023-06-14T02:33:51;4.47;;;1.85;;
75990;SDS011;64673;52.276;10.560;2023-06-14T02:36:17;3.20;;;2.00;;
75990;SDS011;64673;52.276;10.560;2023-06-14T02:38:42;6.43;;;2.05;;
75990;SDS011;64673;52.276;10.560;2023-06-14T02:41:07;2.40;;;1.85;;
75990;SDS011;64673;52.276;10.560;2023-06-14T02:43:33;4.10;;;1.80;;
75990;SDS011;64673;52.276;10.560;2023-06-14T02:45:58;3.05;;;1.73;;
75990;SDS011;64673;52.276;10.560;2023-06-14T02:48:24;4.22;;;1.70;;
75990;SDS011;64673;52.276;10.560;2023-06-14T02:50:49;2.53;;;1.75;;
75990;SDS011;64673;52.276;10.560;2023-06-14T02:53:15;4.03;;;1.70;;
75990;SDS011;64673;52.276;10.560;2023-06-14T02:55:40;3.45;;;1.58;;
75990;SDS011;64673;52.276;10.560;2023-06-14T02:58:06;3.33;;;1.48;;
75990;SDS011;64673;52.276;10.560;2023-06-14T03:00:31;3.55;;;1.92;;
75990;SDS011;64673;52.276;10.560;2023-06-14T03:02:57;2.20;;;1.52;;
75990;SDS011;64673;52.276;10.560;2023-06-14T03:05:22;3.53;;;1.80;;
75990;SDS011;64673;52.276;10.560;2023-06-14T03:07:48;3.40;;;1.98;;
75990;SDS011;64673;52.276;10.560;2023-06-14T03:10:15;4.18;;;1.52;;
75990;SDS011;64673;52.276;10.560;2023-06-14T03:12:41;3.30;;;1.60;;
75990;SDS011;64673;52.276;10.560;2023-06-14T03:15:06;2.67;;;1.60;;
75990;SDS011;64673;52.276;10.560;2023-06-14T03:17:32;2.58;;;1.65;;
75990;SDS011;64673;52.276;10.560;2023-06-14T03:20:01;2.78;;;1.58;;
75990;SDS011;64673;52.276;10.560;2023-06-14T03:22:27;2.53;;;1.60;;
75990;SDS011;64673;52.276;10.560;2023-06-14T03:24:53;2.53;;;1.58;;
75990;SDS011;64673;52.276;10.560;2023-06-14T03:27:19;2.55;;;1.67;;
75990;SDS011;64673;52.276;10.560;2023-06-14T03:29:44;2.10;;;1.50;;
75990;SDS011;64673;52.276;10.560;2023-06-14T03:32:09;2.90;;;1.52;;
75990;SDS011;64673;52.276;10.560;2023-06-14T03:34:35;2.63;;;1.85;;
75990;SDS011;64673;52.276;10.560;2023-06-14T03:37:00;3.08;;;1.70;;
75990;SDS011;64673;52.276;10.560;2023-06-14T03:39:26;3.05;;;1.77;;
75990;SDS011;64673;52.276;10.560;2023-06-14T03:41:51;3.83;;;1.73;;
75990;SDS011;64673;52.276;10.560;2023-06-14T03:44:17;3.72;;;1.85;;
75990;SDS011;64673;52.276;10.560;2023-06-14T03:46:43;3.42;;;1.70;;
75990;SDS011;64673;52.276;10.560;2023-06-14T03:49:10;3.05;;;1.63;;
75990;SDS011;64673;52.276;10.560;2023-06-14T03:51:36;3.38;;;1.60;;
75990;SDS011;64673;52.276;10.560;2023-06-14T03:54:02;3.60;;;1.80;;
75990;SDS011;64673;52.276;10.560;2023-06-14T03:56:27;4.72;;;1.90;;
75990;SDS011;64673;52.276;10.560;2023-06-14T03:58:52;2.25;;;1.52;;
75990;SDS011;64673;52.276;10.560;2023-06-14T04:01:17;2.70;;;1.55;;
75990;SDS011;64673;52.276;10.560;2023-06-14T04:03:43;3.05;;;1.50;;
75990;SDS011;64673;52.276;10.560;2023-06-14T04:06:08;3.70;;;1.50;;
75990;SDS011;64673;52.276;10.560;2023-06-14T04:08:34;2.65;;;1.67;;
75990;SDS011;64673;52.276;10.560;2023-06-14T04:11:00;3.70;;;1.85;;
75990;SDS011;64673;52.276;10.560;2023-06-14T04:13:25;3.33;;;1.77;;
75990;SDS011;64673;52.276;10.560;2023-06-14T04:15:51;2.92;;;1.83;;
75990;SDS011;64673;52.276;10.560;2023-06-14T04:18:16;4.95;;;1.55;;
75990;SDS011;64673;52.276;10.560;2023-06-14T04:20:42;4.43;;;1.80;;
75990;SDS011;64673;52.276;10.560;2023-06-14T04:23:12;3.63;;;1.58;;
75990;SDS011;64673;52.276;10.560;2023-06-14T04:25:38;2.45;;;1.80;;
75990;SDS011;64673;52.276;10.560;2023-06-14T04:28:03;2.42;;;1.52;;
75990;SDS011;64673;52.276;10.560;2023-06-14T04:30:28;2.92;;;1.63;;
75990;SDS011;64673;52.276;10.560;2023-06-14T04:35:21;6.53;;;1.60;;
75990;SDS011;64673;52.276;10.560;2023-06-14T04:37:48;3.25;;;1.88;;
75990;SDS011;64673;52.276;10.560;2023-06-14T04:40:14;3.95;;;1.70;;
75990;SDS011;64673;52.276;10.560;2023-06-14T04:42:39;4.20;;;1.80;;
75990;SDS011;64673;52.276;10.560;2023-06-14T04:45:05;4.25;;;2.03;;
75990;SDS011;64673;52.276;10.560;2023-06-14T04:47:32;2.63;;;1.80;;
75990;SDS011;64673;52.276;10.560;2023-06-14T04:49:59;3.05;;;1.88;;
75990;SDS011;64673;52.276;10.560;2023-06-14T04:52:25;2.67;;;1.58;;
75990;SDS011;64673;52.276;10.560;2023-06-14T04:54:51;3.63;;;1.70;;
75990;SDS011;64673;52.276;10.560;2023-06-14T04:57:19;3.72;;;1.80;;
75990;SDS011;64673;52.276;10.560;2023-06-14T04:59:47;2.88;;;1.80;;
75990;SDS011;64673;52.276;10.560;2023-06-14T05:02:13;4.85;;;2.08;;
75990;SDS011;64673;52.276;10.560;2023-06-14T05:04:39;4.03;;;1.90;;
75990;SDS011;64673;52.276;10.560;2023-06-14T05:07:08;3.58;;;1.73;;
75990;SDS011;64673;52.276;10.560;2023-06-14T05:09:37;4.85;;;2.08;;
75990;SDS011;64673;52.276;10.560;2023-06-14T05:12:02;3.00;;;1.55;;
75990;SDS011;64673;52.276;10.560;2023-06-14T05:14:28;2.55;;;1.75;;
75990;SDS011;64673;52.276;10.560;2023-06-14T05:16:54;2.70;;;1.70;;
75990;SDS011;64673;52.276;10.560;2023-06-14T05:19:19;3.28;;;1.77;;
75990;SDS011;64673;52.276;10.560;2023-06-14T05:21:46;3.20;;;1.90;;
75990;SDS011;64673;52.276;10.560;2023-06-14T05:24:12;4.18;;;2.00;;
75990;SDS011;64673;52.276;10.560;2023-06-14T05:26:38;8.32;;;2.10;;
75990;SDS011;64673;52.276;10.560;2023-06-14T05:29:03;2.83;;;1.65;;
75990;SDS011;64673;52.276;10.560;2023-06-14T05:31:29;3.53;;;1.60;;
75990;SDS011;64673;52.276;10.560;2023-06-14T05:33:54;6.65;;;2.10;;
75990;SDS011;64673;52.276;10.560;2023-06-14T05:36:20;4.28;;;2.10;;
75990;SDS011;64673;52.276;10.560;2023-06-14T05:38:46;3.80;;;1.88;;
75990;SDS011;64673;52.276;10.560;2023-06-14T05:41:11;3.25;;;1.73;;
75990;SDS011;64673;52.276;10.560;2023-06-14T05:43:37;4.20;;;1.90;;
75990;SDS011;64673;52.276;10.560;2023-06-14T05:46:02;5.45;;;2.25;;
75990;SDS011;64673;52.276;10.560;2023-06-14T05:48:28;3.03;;;1.90;;
75990;SDS011;64673;52.276;10.560;2023-06-14T05:50:53;5.75;;;1.98;;
75990;SDS011;64673;52.276;10.560;2023-06-14T05:53:19;3.10;;;2.00;;
75990;SDS011;64673;52.276;10.560;2023-06-14T05:55:44;2.90;;;2.13;;
75990;SDS011;64673;52.276;10.560;2023-06-14T05:58:10;4.05;;;2.30;;
75990;SDS011;64673;52.276;10.560;2023-06-14T06:00:35;3.88;;;1.92;;
75990;SDS011;64673;52.276;10.560;2023-06-14T06:03:01;4.15;;;2.03;;
75990;SDS011;64673;52.276;10.560;2023-06-14T06:05:27;4.82;;;1.92;;
75990;SDS011;64673;52.276;10.560;2023-06-14T06:07:52;3.38;;;2.13;;
75990;SDS011;64673;52.276;10.560;2023-06-14T06:10:17;4.70;;;2.13;;
75990;SDS011;64673;52.276;10.560;2023-06-14T06:12:43;5.07;;;2.00;;
75990;SDS011;64673;52.276;10.560;2023-06-14T06:15:08;4.05;;;1.83;;
75990;SDS011;64673;52.276;10.560;2023-06-14T06:17:37;5.25;;;2.17;;
75990;SDS011;64673;52.276;10.560;2023-06-14T06:20:03;3.97;;;2.00;;
75990;SDS011;64673;52.276;10.560;2023-06-14T06:22:30;4.00;;;2.08;;
75990;SDS011;64673;52.276;10.560;2023-06-14T06:24:56;4.35;;;1.98;;
75990;SDS011;64673;52.276;10.560;2023-06-14T06:27:21;3.97;;;2.00;;
75990;SDS011;64673;52.276;10.560;2023-06-14T06:29:46;4.57;;;2.30;;
75990;SDS011;64673;52.276;10.560;2023-06-14T06:32:13;4.35;;;1.92;;
75990;SDS011;64673;52.276;10.560;2023-06-14T06:34:39;3.15;;;1.85;;
75990;SDS011;64673;52.276;10.560;2023-06-14T06:37:04;2.85;;;1.90;;
75990;SDS011;64673;52.276;10.560;2023-06-14T06:39:31;3.80;;;2.45;;
75990;SDS011;64673;52.276;10.560;2023-06-14T06:41:56;2.80;;;2.00;;
75990;SDS011;64673;52.276;10.560;2023-06-14T06:44:21;3.58;;;1.73;;
75990;SDS011;64673;52.276;10.560;2023-06-14T06:46:47;3.72;;;2.15;;
75990;SDS011;64673;52.276;10.560;2023-06-14T06:49:12;3.03;;;1.98;;
75990;SDS011;64673;52.276;10.560;2023-06-14T06:51:40;2.72;;;2.10;;
75990;SDS011;64673;52.276;10.560;2023-06-14T06:54:07;4.45;;;2.28;;
75990;SDS011;64673;52.276;10.560;2023-06-14T06:56:33;4.45;;;2.50;;
75990;SDS011;64673;52.276;10.560;2023-06-14T06:58:58;2.92;;;1.70;;
75990;SDS011;64673;52.276;10.560;2023-06-14T07:01:24;3.78;;;2.13;;
75990;SDS011;64673;52.276;10.560;2023-06-14T07:03:51;3.22;;;2.08;;
75990;SDS011;64673;52.276;10.560;2023-06-14T07:06:16;5.40;;;1.75;;
75990;SDS011;64673;52.276;10.560;2023-06-14T07:11:09;3.95;;;1.88;;
75990;SDS011;64673;52.276;10.560;2023-06-14T07:13:34;3.45;;;1.80;;
75990;SDS011;64673;52.276;10.560;2023-06-14T07:16:00;3.22;;;1.60;;
75990;SDS011;64673;52.276;10.560;2023-06-14T07:18:26;3.38;;;1.63;;
75990;SDS011;64673;52.276;10.560;2023-06-14T07:20:52;4.28;;;1.63;;
75990;SDS011;64673;52.276;10.560;2023-06-14T07:23:22;2.65;;;1.80;;
75990;SDS011;64673;52.276;10.560;2023-06-14T07:25:47;3.22;;;1.58;;
75990;SDS011;64673;52.276;10.560;2023-06-14T07:28:13;4.05;;;1.90;;
75990;SDS011;64673;52.276;10.560;2023-06-14T07:30:38;3.50;;;1.58;;
75990;SDS011;64673;52.276;10.560;2023-06-14T07:33:03;2.20;;;1.55;;
75990;SDS011;64673;52.276;10.560;2023-06-14T07:35:29;2.15;;;1.80;;
75990;SDS011;64673;52.276;10.560;2023-06-14T07:37:54;2.13;;;1.40;;
75990;SDS011;64673;52.276;10.560;2023-06-14T07:40:20;2.40;;;1.70;;
75990;SDS011;64673;52.276;10.560;2023-06-14T07:42:45;2.53;;;1.52;;
75990;SDS011;64673;52.276;10.560;2023-06-14T07:45:12;2.60;;;1.48;;
75990;SDS011;64673;52.276;10.560;2023-06-14T07:47:39;2.35;;;1.30;;
75990;SDS011;64673;52.276;10.560;2023-06-14T07:50:04;2.75;;;1.80;;
75990;SDS011;64673;52.276;10.560;2023-06-14T07:52:30;3.17;;;1.63;;
75990;SDS011;64673;52.276;10.560;2023-06-14T07:54:56;2.95;;;1.58;;
75990;SDS011;64673;52.276;10.560;2023-06-14T07:57:21;2.20;;;1.48;;
75990;SDS011;64673;52.276;10.560;2023-06-14T07:59:47;3.05;;;1.60;;
75990;SDS011;64673;52.276;10.560;2023-06-14T08:02:12;3.00;;;1.60;;
75990;SDS011;64673;52.276;10.560;2023-06-14T08:04:38;2.05;;;1.52;;
75990;SDS011;64673;52.276;10.560;2023-06-14T08:07:03;3.47;;;1.60;;
75990;SDS011;64673;52.276;10.560;2023-06-14T08:09:29;2.78;;;1.60;;
75990;SDS011;64673;52.276;10.560;2023-06-14T08:11:55;2.97;;;1.73;;
75990;SDS011;64673;52.276;10.560;2023-06-14T08:14:20;2.20;;;1.50;;
75990;SDS011;64673;52.276;10.560;2023-06-14T08:16:46;2.22;;;1.52;;
75990;SDS011;64673;52.276;10.560;2023-06-14T08:19:11;2.80;;;1.70;;
75990;SDS011;64673;52.276;10.560;2023-06-14T08:21:37;2.53;;;1.50;;
75990;SDS011;64673;52.276;10.560;2023-06-14T08:24:02;2.85;;;1.60;;
75990;SDS011;64673;52.276;10.560;2023-06-14T08:26:29;3.92;;;2.38;;
75990;SDS011;64673;52.276;10.560;2023-06-14T08:28:55;2.38;;;1.70;;
75990;SDS011;64673;52.276;10.560;2023-06-14T08:31:20;2.70;;;1.60;;
75990;SDS011;64673;52.276;10.560;2023-06-14T08:33:46;3.45;;;1.40;;
75990;SDS011;64673;52.276;10.560;2023-06-14T08:36:12;2.13;;;1.50;;
75990;SDS011;64673;52.276;10.560;2023-06-14T08:38:38;2.50;;;1.50;;
75990;SDS011;64673;52.276;10.560;2023-06-14T08:41:04;2.38;;;1.60;;
75990;SDS011;64673;52.276;10.560;2023-06-14T08:43:33;2.25;;;1.50;;
75990;SDS011;64673;52.276;10.560;2023-06-14T08:46:00;2.53;;;1.40;;
75990;SDS011;64673;52.276;10.560;2023-06-14T08:48:27;2.15;;;1.50;;
75990;SDS011;64673;52.276;10.560;2023-06-14T08:50:56;2.00;;;1.30;;
75990;SDS011;64673;52.276;10.560;2023-06-14T08:53:27;2.00;;;1.30;;
75990;SDS011;64673;52.276;10.560;2023-06-14T08:55:57;2.55;;;1.27;;
75990;SDS011;64673;52.276;10.560;2023-06-14T08:58:30;2.83;;;1.48;;
75990;SDS011;64673;52.276;10.560;2023-06-14T09:00:56;2.38;;;1.42;;
75990;SDS011;64673;52.276;10.560;2023-06-14T09:03:24;2.53;;;1.77;;
75990;SDS011;64673;52.276;10.560;2023-06-14T09:05:54;3.92;;;1.40;;
75990;SDS011;64673;52.276;10.560;2023-06-14T09:08:26;2.88;;;1.30;;
75990;SDS011;64673;52.276;10.560;2023-06-14T09:10:55;2.53;;;1.73;;
75990;SDS011;64673;52.276;10.560;2023-06-14T09:13:21;1.83;;;1.40;;
75990;SDS011;64673;52.276;10.560;2023-06-14T09:15:46;3.30;;;1.52;;
75990;SDS011;64673;52.276;10.560;2023-06-14T09:18:11;2.05;;;1.40;;
75990;SDS011;64673;52.276;10.560;2023-06-14T09:20:36;2.42;;;1.48;;
75990;SDS011;64673;52.276;10.560;2023-06-14T09:23:02;1.95;;;1.20;;
75990;SDS011;64673;52.276;10.560;2023-06-14T09:25:29;1.95;;;1.20;;
75990;SDS011;64673;52.276;10.560;2023-06-14T09:27:55;4.13;;;1.70;;
75990;SDS011;64673;52.276;10.560;2023-06-14T09:30:20;4.35;;;1.63;;
75990;SDS011;64673;52.276;10.560;2023-06-14T09:32:46;4.38;;;1.50;;
75990;SDS011;64673;52.276;10.560;2023-06-14T09:35:11;1.80;;;1.30;;
75990;SDS011;64673;52.276;10.560;2023-06-14T09:37:37;2.42;;;1.33;;
75990;SDS011;64673;52.276;10.560;2023-06-14T09:40:05;3.35;;;1.50;;
75990;SDS011;64673;52.276;10.560;2023-06-14T09:45:00;6.53;;;1.67;;
75990;SDS011;64673;52.276;10.560;2023-06-14T09:47:28;3.05;;;1.70;;
75990;SDS011;64673;52.276;10.560;2023-06-14T09:49:54;4.05;;;1.65;;
75990;SDS011;64673;52.276;10.560;2023-06-14T09:52:20;4.25;;;1.50;;
75990;SDS011;64673;52.276;10.560;2023-06-14T09:54:47;2.63;;;1.63;;
75990;SDS011;64673;52.276;10.560;2023-06-14T09:57:15;2.22;;;1.55;;
75990;SDS011;64673;52.276;10.560;2023-06-14T09:59:45;2.35;;;1.48;;
75990;SDS011;64673;52.276;10.560;2023-06-14T10:04:50;2.25;;;1.42;;
75990;SDS011;64673;52.276;10.560;2023-06-14T10:07:22;3.42;;;1.58;;
75990;SDS011;64673;52.276;10.560;2023-06-14T10:09:52;2.05;;;1.50;;
75990;SDS011;64673;52.276;10.560;2023-06-14T10:12:18;4.40;;;2.20;;
75990;SDS011;64673;52.276;10.560;2023-06-14T10:14:49;2.35;;;1.67;;
75990;SDS011;64673;52.276;10.560;2023-06-14T10:17:20;2.40;;;1.70;;
75990;SDS011;64673;52.276;10.560;2023-06-14T10:20:25;4.22;;;1.77;;
75990;SDS011;64673;52.276;10.560;2023-06-14T10:22:44;4.35;;;1.67;;
75990;SDS011;64673;52.276;10.560;2023-06-14T10:25:29;3.92;;;1.90;;
75990;SDS011;64673;52.276;10.560;2023-06-14T10:31:02;3.08;;;1.67;;
75990;SDS011;64673;52.276;10.560;2023-06-14T10:33:31;2.53;;;1.90;;
75990;SDS011;64673;52.276;10.560;2023-06-14T10:36:10;5.13;;;1.90;;
75990;SDS011;64673;52.276;10.560;2023-06-14T10:38:56;2.50;;;1.90;;
75990;SDS011;64673;52.276;10.560;2023-06-14T10:41:57;4.00;;;1.67;;
75990;SDS011;64673;52.276;10.560;2023-06-14T10:46:54;2.72;;;1.88;;
75990;SDS011;64673;52.276;10.560;2023-06-14T10:49:37;3.05;;;1.92;;
75990;SDS011;64673;52.276;10.560;2023-06-14T10:52:14;5.43;;;2.13;;
75990;SDS011;64673;52.276;10.560;2023-06-14T10:57:53;4.95;;;2.08;;
75990;SDS011;64673;52.276;10.560;2023-06-14T11:00:27;3.20;;;2.05;;
75990;SDS011;64673;52.276;10.560;2023-06-14T11:05:40;2.80;;;1.92;;
75990;SDS011;64673;52.276;10.560;2023-06-14T11:11:09;4.97;;;2.00;;
75990;SDS011;64673;52.276;10.560;2023-06-14T11:13:41;3.58;;;2.10;;
75990;SDS011;64673;52.276;10.560;2023-06-14T11:16:15;2.63;;;2.08;;
75990;SDS011;64673;52.276;10.560;2023-06-14T11:18:42;3.88;;;2.13;;
75990;SDS011;64673;52.276;10.560;2023-06-14T11:21:10;3.70;;;2.70;;
75990;SDS011;64673;52.276;10.560;2023-06-14T11:23:36;5.82;;;2.28;;
75990;SDS011;64673;52.276;10.560;2023-06-14T11:26:01;3.33;;;1.90;;
75990;SDS011;64673;52.276;10.560;2023-06-14T11:28:38;3.22;;;2.20;;
75990;SDS011;64673;52.276;10.560;2023-06-14T11:31:05;6.05;;;2.17;;
75990;SDS011;64673;52.276;10.560;2023-06-14T11:33:31;4.05;;;2.10;;
75990;SDS011;64673;52.276;10.560;2023-06-14T11:35:56;3.95;;;2.20;;
75990;SDS011;64673;52.276;10.560;2023-06-14T11:38:22;3.47;;;2.20;;
75990;SDS011;64673;52.276;10.560;2023-06-14T11:40:48;4.63;;;2.00;;
75990;SDS011;64673;52.276;10.560;2023-06-14T11:43:14;3.22;;;1.90;;
75990;SDS011;64673;52.276;10.560;2023-06-14T11:45:40;3.65;;;2.00;;
75990;SDS011;64673;52.276;10.560;2023-06-14T11:48:06;7.05;;;2.40;;
75990;SDS011;64673;52.276;10.560;2023-06-14T11:50:31;5.18;;;2.40;;
75990;SDS011;64673;52.276;10.560;2023-06-14T11:52:59;4.13;;;2.10;;
75990;SDS011;64673;52.276;10.560;2023-06-14T11:55:31;3.78;;;2.15;;
75990;SDS011;64673;52.276;10.560;2023-06-14T11:57:57;3.22;;;2.05;;
75990;SDS011;64673;52.276;10.560;2023-06-14T12:00:26;3.42;;;2.30;;
75990;SDS011;64673;52.276;10.560;2023-06-14T12:02:55;5.85;;;2.28;;
75990;SDS011;64673;52.276;10.560;2023-06-14T12:05:22;5.32;;;2.05;;
75990;SDS011;64673;52.276;10.560;2023-06-14T12:07:47;3.20;;;2.28;;
75990;SDS011;64673;52.276;10.560;2023-06-14T12:10:13;5.20;;;2.10;;
75990;SDS011;64673;52.276;10.560;2023-06-14T12:12:39;7.15;;;2.80;;
75990;SDS011;64673;52.276;10.560;2023-06-14T12:15:05;4.30;;;2.03;;
75990;SDS011;64673;52.276;10.560;2023-06-14T12:17:36;4.63;;;2.30;;
75990;SDS011;64673;52.276;10.560;2023-06-14T12:20:06;5.07;;;2.13;;
75990;SDS011;64673;52.276;10.560;2023-06-14T12:22:39;3.88;;;2.40;;
75990;SDS011;64673;52.276;10.560;2023-06-14T12:25:11;3.88;;;2.10;;
75990;SDS011;64673;52.276;10.560;2023-06-14T12:27:48;4.88;;;2.15;;
75990;SDS011;64673;52.276;10.560;2023-06-14T12:30:13;5.32;;;2.33;;
75990;SDS011;64673;52.276;10.560;2023-06-14T12:32:39;5.45;;;2.30;;
75990;SDS011;64673;52.276;10.560;2023-06-14T12:35:05;3.58;;;2.15;;
75990;SDS011;64673;52.276;10.560;2023-06-14T12:37:30;5.47;;;2.40;;
75990;SDS011;64673;52.276;10.560;2023-06-14T12:39:56;3.88;;;2.10;;
75990;SDS011;64673;52.276;10.560;2023-06-14T12:42:21;4.93;;;2.28;;
75990;SDS011;64673;52.276;10.560;2023-06-14T12:44:46;4.90;;;2.22;;
75990;SDS011;64673;52.276;10.560;2023-06-14T12:47:11;5.10;;;2.10;;
75990;SDS011;64673;52.276;10.560;2023-06-14T12:49:38;3.70;;;1.95;;
75990;SDS011;64673;52.276;10.560;2023-06-14T12:52:05;8.63;;;2.50;;
75990;SDS011;64673;52.276;10.560;2023-06-14T12:54:30;4.68;;;1.92;;
75990;SDS011;64673;52.276;10.560;2023-06-14T12:56:56;4.47;;;2.28;;
75990;SDS011;64673;52.276;10.560;2023-06-14T12:59:21;3.70;;;2.22;;
75990;SDS011;64673;52.276;10.560;2023-06-14T13:01:46;4.38;;;1.90;;
75990;SDS011;64673;52.276;10.560;2023-06-14T13:04:15;4.03;;;2.15;;
75990;SDS011;64673;52.276;10.560;2023-06-14T13:06:40;3.00;;;2.00;;
75990;SDS011;64673;52.276;10.560;2023-06-14T13:09:05;4.72;;;2.40;;
75990;SDS011;64673;52.276;10.560;2023-06-14T13:11:31;2.90;;;1.92;;
75990;SDS011;64673;52.276;10.560;2023-06-14T13:13:56;4.65;;;2.15;;
75990;SDS011;64673;52.276;10.560;2023-06-14T13:16:22;5.18;;;1.98;;
75990;SDS011;64673;52.276;10.560;2023-06-14T13:18:47;7.50;;;2.35;;
75990;SDS011;64673;52.276;10.560;2023-06-14T13:21:12;4.35;;;2.30;;
75990;SDS011;64673;52.276;10.560;2023-06-14T13:23:38;4.65;;;1.95;;
75990;SDS011;64673;52.276;10.560;2023-06-14T13:26:03;4.18;;;2.45;;
75990;SDS011;64673;52.276;10.560;2023-06-14T13:28:28;4.10;;;2.40;;
75990;SDS011;64673;52.276;10.560;2023-06-14T13:30:54;7.78;;;2.45;;
75990;SDS011;64673;52.276;10.560;2023-06-14T13:33:20;5.38;;;2.25;;
75990;SDS011;64673;52.276;10.560;2023-06-14T13:35:46;4.55;;;2.17;;
75990;SDS011;64673;52.276;10.560;2023-06-14T13:38:11;3.15;;;2.10;;
75990;SDS011;64673;52.276;10.560;2023-06-14T13:40:37;4.72;;;2.25;;
75990;SDS011;64673;52.276;10.560;2023-06-14T13:43:02;6.63;;;2.30;;
75990;SDS011;64673;52.276;10.560;2023-06-14T13:45:27;7.15;;;2.70;;
75990;SDS011;64673;52.276;10.560;2023-06-14T13:47:52;3.28;;;2.05;;
75990;SDS011;64673;52.276;10.560;2023-06-14T13:50:19;3.75;;;2.00;;
75990;SDS011;64673;52.276;10.560;2023-06-14T13:52:45;4.65;;;2.60;;
75990;SDS011;64673;52.276;10.560;2023-06-14T13:55:10;3.42;;;2.20;;
75990;SDS011;64673;52.276;10.560;2023-06-14T13:57:35;3.67;;;2.40;;
75990;SDS011;64673;52.276;10.560;2023-06-14T14:00:01;4.60;;;2.40;;
75990;SDS011;64673;52.276;10.560;2023-06-14T14:02:27;3.25;;;2.50;;
75990;SDS011;64673;52.276;10.560;2023-06-14T14:04:54;5.28;;;2.05;;
75990;SDS011;64673;52.276;10.560;2023-06-14T14:07:20;4.22;;;2.20;;
75990;SDS011;64673;52.276;10.560;2023-06-14T14:09:47;2.90;;;2.30;;
75990;SDS011;64673;52.276;10.560;2023-06-14T14:12:12;7.20;;;2.28;;
75990;SDS011;64673;52.276;10.560;2023-06-14T14:14:39;4.88;;;2.30;;
75990;SDS011;64673;52.276;10.560;2023-06-14T14:17:04;5.13;;;2.22;;
75990;SDS011;64673;52.276;10.560;2023-06-14T14:21:57;7.13;;;1.98;;
75990;SDS011;64673;52.276;10.560;2023-06-14T14:24:22;3.38;;;2.38;;
75990;SDS011;64673;52.276;10.560;2023-06-14T14:26:47;5.88;;;2.10;;
75990;SDS011;64673;52.276;10.560;2023-06-14T14:31:40;3.03;;;2.13;;
75990;SDS011;64673;52.276;10.560;2023-06-14T14:34:05;4.60;;;2.15;;
75990;SDS011;64673;52.276;10.560;2023-06-14T14:36:30;3.80;;;2.00;;
75990;SDS011;64673;52.276;10.560;2023-06-14T14:38:56;2.72;;;2.08;;
75990;SDS011;64673;52.276;10.560;2023-06-14T14:41:21;4.68;;;2.05;;
75990;SDS011;64673;52.276;10.560;2023-06-14T14:43:46;5.03;;;2.15;;
75990;SDS011;64673;52.276;10.560;2023-06-14T14:46:12;4.95;;;3.03;;
75990;SDS011;64673;52.276;10.560;2023-06-14T14:48:37;7.28;;;2.33;;
75990;SDS011;64673;52.276;10.560;2023-06-14T14:51:02;3.05;;;1.90;;
75990;SDS011;64673;52.276;10.560;2023-06-14T14:53:28;4.78;;;2.30;;
75990;SDS011;64673;52.276;10.560;2023-06-14T14:55:53;5.65;;;2.30;;
75990;SDS011;64673;52.276;10.560;2023-06-14T14:58:19;6.43;;;2.30;;
75990;SDS011;64673;52.276;10.560;2023-06-14T15:00:47;6.82;;;2.53;;
75990;SDS011;64673;52.276;10.560;2023-06-14T15:03:13;3.83;;;2.17;;
75990;SDS011;64673;52.276;10.560;2023-06-14T15:05:39;6.75;;;2.58;;
75990;SDS011;64673;52.276;10.560;2023-06-14T15:08:04;3.90;;;2.47;;
75990;SDS011;64673;52.276;10.560;2023-06-14T15:10:36;4.80;;;2.38;;